createdAt,value
2018-12-26T00:02:37.097Z,16.40
2018-12-26T00:05:18.940Z,16.17
2018-12-26T00:08:27.318Z,16.40
2018-12-26T00:11:09.503Z,14.83
2018-12-26T00:13:59.054Z,15.03
2018-12-26T00:19:44.652Z,14.73
2018-12-26T00:22:34.393Z,15.83
2018-12-26T00:25:24.104Z,15.27
2018-12-26T00:28:13.693Z,16.07
2018-12-26T00:30:56.090Z,16.00
2018-12-26T00:34:04.541Z,14.10
2018-12-26T00:36:46.375Z,14.13
2018-12-26T00:39:54.795Z,14.30
2018-12-26T00:42:36.506Z,14.10
2018-12-26T00:45:44.945Z,16.47
2018-12-26T00:48:27.335Z,16.80
2018-12-26T00:51:35.767Z,17.43
2018-12-26T00:54:18.213Z,17.60
2018-12-26T00:57:07.738Z,18.87
2018-12-26T00:59:49.630Z,19.97
2018-12-26T01:02:58.056Z,20.17
2018-12-26T01:05:41.763Z,20.30
2018-12-26T01:08:31.258Z,19.87
2018-12-26T01:11:13.462Z,20.07
2018-12-26T01:14:21.894Z,20.60
2018-12-26T01:17:04.230Z,19.97
2018-12-26T01:19:53.739Z,19.27
2018-12-26T01:29:04.577Z,16.00
2018-12-26T01:35:02.532Z,15.10
2018-12-26T01:37:52.169Z,17.50
2018-12-26T01:43:33.799Z,16.93
2018-12-26T01:46:23.829Z,15.53
2018-12-26T01:49:05.764Z,15.43
2018-12-26T01:55:01.728Z,13.63
2018-12-26T01:57:51.199Z,16.90
2018-12-26T02:00:40.741Z,17.20
2018-12-26T02:03:23.324Z,16.67
2018-12-26T02:06:12.859Z,16.80
2018-12-26T02:08:54.866Z,16.63
2018-12-26T02:12:24.130Z,17.07
2018-12-26T02:15:06.353Z,15.10
2018-12-26T02:18:14.773Z,14.70
2018-12-26T02:20:57.830Z,15.10
2018-12-26T02:23:47.467Z,15.83
2018-12-26T02:26:36.365Z,14.13
2018-12-26T02:29:21.141Z,13.37
2018-12-26T02:32:30.442Z,13.93
2018-12-26T02:35:13.022Z,13.90
2018-12-26T02:38:02.604Z,14.67
2018-12-26T02:40:45.024Z,14.20
2018-12-26T02:43:53.457Z,14.83
2018-12-26T02:46:42.989Z,14.70
2018-12-26T02:49:25.627Z,14.20
2018-12-26T02:52:15.175Z,14.57
2018-12-26T02:54:57.734Z,14.40
2018-12-26T03:00:53.805Z,15.53
2018-12-26T03:06:53.735Z,12.80
2018-12-26T03:09:43.363Z,13.23
2018-12-26T03:12:25.433Z,12.30
2018-12-26T03:15:33.867Z,11.67
2018-12-26T03:18:16.313Z,12.70
2018-12-26T03:21:24.757Z,13.33
2018-12-26T03:27:15.889Z,12.63
2018-12-26T03:29:58.269Z,14.00
2018-12-26T03:32:47.819Z,14.17
2018-12-26T03:35:29.537Z,15.23
2018-12-26T03:38:19.381Z,14.87
2018-12-26T03:41:01.604Z,15.00
2018-12-26T03:46:58.825Z,14.67
2018-12-26T03:52:56.718Z,14.50
2018-12-26T03:55:46.272Z,14.10
2018-12-26T03:58:35.798Z,13.50
2018-12-26T04:01:18.457Z,13.13
2018-12-26T04:04:07.989Z,13.03
2018-12-26T04:06:50.392Z,13.20
2018-12-26T04:09:58.864Z,12.80
2018-12-26T04:12:41.021Z,12.77
2018-12-26T04:18:38.907Z,11.50
2018-12-26T04:21:28.449Z,11.60
2018-12-26T04:24:28.962Z,10.90
2018-12-26T04:27:18.497Z,10.93
2018-12-26T04:30:01.003Z,10.20
2018-12-26T04:35:58.105Z,10.80
2018-12-26T04:47:44.900Z,9.37
2018-12-26T04:59:52.614Z,8.87
2018-12-26T05:05:54.251Z,8.43
2018-12-26T05:09:03.043Z,7.87
2018-12-26T05:14:54.192Z,6.93
2018-12-26T05:17:43.826Z,7.40
2018-12-26T05:20:25.871Z,5.57
2018-12-26T05:23:15.795Z,4.87
2018-12-26T05:25:57.787Z,4.73
2018-12-26T05:28:47.325Z,5.30
2018-12-26T05:31:29.921Z,4.50
2018-12-26T05:37:26.401Z,4.20
2018-12-26T05:40:15.917Z,3.77
2018-12-26T05:43:05.532Z,4.00
2018-12-26T05:45:47.829Z,4.10
2018-12-26T05:48:29.681Z,4.20
2018-12-26T05:51:19.203Z,3.90
2018-12-26T05:54:01.528Z,4.07
2018-12-26T05:59:57.686Z,3.30
2018-12-26T06:02:47.251Z,2.60
2018-12-26T06:05:29.330Z,2.87
2018-12-26T06:11:12.743Z,3.13
2018-12-26T06:14:21.204Z,2.93
2018-12-26T06:17:03.839Z,3.10
2018-12-26T06:20:12.246Z,3.17
2018-12-26T06:22:55.437Z,3.50
2018-12-26T06:28:53.658Z,4.03
2018-12-26T06:41:01.320Z,4.47
2018-12-26T06:43:43.177Z,4.53
2018-12-26T06:49:20.634Z,4.73
2018-12-26T06:52:10.305Z,4.57
2018-12-26T06:54:52.008Z,4.20
2018-12-26T07:00:48.773Z,3.80
2018-12-26T07:03:57.229Z,3.40
2018-12-26T07:15:50.245Z,3.57
2018-12-26T07:18:32.379Z,4.33
2018-12-26T07:21:40.829Z,4.93
2018-12-26T07:24:24.792Z,4.47
2018-12-26T07:27:53.839Z,3.70
2018-12-26T07:30:36.037Z,3.73
2018-12-26T07:36:35.794Z,4.53
2018-12-26T07:39:25.423Z,8.67
2018-12-26T07:42:07.632Z,5.00
2018-12-26T07:48:04.578Z,3.67
2018-12-26T07:50:54.148Z,3.63
2018-12-26T07:54:02.931Z,3.00
2018-12-26T07:56:44.649Z,2.97
2018-12-26T07:59:53.072Z,3.37
2018-12-26T08:02:34.955Z,3.57
2018-12-26T08:08:32.131Z,5.07
2018-12-26T08:11:21.645Z,6.17
2018-12-26T08:14:06.575Z,6.23
2018-12-26T08:20:04.682Z,7.10
2018-12-26T08:23:05.618Z,8.77
2018-12-26T08:31:57.249Z,9.97
2018-12-26T08:34:39.176Z,11.37
2018-12-26T08:37:28.734Z,8.27
2018-12-26T08:40:11.365Z,9.00
2018-12-26T08:43:00.877Z,7.67
2018-12-26T08:45:43.088Z,7.20
2018-12-26T08:48:25.710Z,9.37
2018-12-26T08:51:34.142Z,10.13
2018-12-26T08:54:16.152Z,10.03
2018-12-26T08:57:27.511Z,10.00
2018-12-26T09:00:09.936Z,9.00
2018-12-26T09:03:18.366Z,9.20
2018-12-26T09:06:00.425Z,8.63
2018-12-26T09:08:50.021Z,7.97
2018-12-26T09:11:35.108Z,8.50
2018-12-26T09:14:43.518Z,7.93
2018-12-26T09:17:31.992Z,6.83
2018-12-26T09:20:26.143Z,6.57
2018-12-26T09:26:36.750Z,5.90
2018-12-26T09:29:26.257Z,5.47
2018-12-26T09:32:08.148Z,5.07
2018-12-26T09:35:18.367Z,4.87
2018-12-26T09:38:00.228Z,4.47
2018-12-26T09:40:49.972Z,4.33
2018-12-26T09:43:33.728Z,4.00
2018-12-26T09:46:18.844Z,4.63
2018-12-26T09:49:16.846Z,4.30
2018-12-26T09:52:00.537Z,3.73
2018-12-26T09:58:23.621Z,3.60
2018-12-26T10:04:25.405Z,3.60
2018-12-26T10:07:08.284Z,3.40
2018-12-26T10:28:45.331Z,3.33
2018-12-26T10:31:27.857Z,3.13
2018-12-26T10:34:36.309Z,2.63
2018-12-26T10:37:18.737Z,3.20
2018-12-26T10:40:08.424Z,3.10
2018-12-26T10:42:50.847Z,3.00
2018-12-26T10:45:40.377Z,2.67
2018-12-26T10:48:23.089Z,2.73
2018-12-26T10:51:12.654Z,2.80
2018-12-26T10:53:54.680Z,2.63
2018-12-26T10:57:03.316Z,2.60
2018-12-26T10:59:52.016Z,2.70
2018-12-26T11:02:37.204Z,2.30
2018-12-26T11:05:19.784Z,2.27
2018-12-26T11:08:09.320Z,2.50
2018-12-26T11:10:53.342Z,2.20
2018-12-26T11:16:49.215Z,1.90
2018-12-26T11:19:38.741Z,1.83
2018-12-26T11:22:28.241Z,2.43
2018-12-26T11:25:10.394Z,2.20
2018-12-26T11:28:18.793Z,2.30
2018-12-26T11:31:01.312Z,2.10
2018-12-26T11:34:09.732Z,1.80
2018-12-26T11:36:52.049Z,2.10
2018-12-26T11:42:52.122Z,2.40
2018-12-26T11:48:48.846Z,2.10
2018-12-26T11:51:38.374Z,2.30
2018-12-26T11:54:27.942Z,2.73
2018-12-26T11:57:10.361Z,2.40
2018-12-26T11:59:59.894Z,2.40
2018-12-26T12:02:42.639Z,2.47
2018-12-26T12:05:32.183Z,2.40
2018-12-26T12:08:14.749Z,2.50
2018-12-26T12:11:04.361Z,2.60
2018-12-26T12:13:46.095Z,3.10
2018-12-26T12:16:35.616Z,2.80
2018-12-26T12:19:25.227Z,3.10
2018-12-26T12:22:33.780Z,3.10
2018-12-26T12:25:15.797Z,4.07
2018-12-26T12:28:25.999Z,7.20
2018-12-26T12:31:08.718Z,6.50
2018-12-26T12:46:54.820Z,7.17
2018-12-26T12:50:03.510Z,7.37
2018-12-26T12:52:53.774Z,9.43
2018-12-26T13:06:12.131Z,7.10
2018-12-26T13:22:21.429Z,7.17
2018-12-26T13:25:08.182Z,7.70
2018-12-26T13:31:06.892Z,8.00
2018-12-26T13:33:56.444Z,8.40
2018-12-26T13:37:04.978Z,9.20
2018-12-26T13:39:49.889Z,9.40
2018-12-26T13:43:03.306Z,9.17
2018-12-26T13:45:53.984Z,9.40
2018-12-26T13:57:59.068Z,9.53
2018-12-26T14:03:43.112Z,9.43
2018-12-26T14:06:35.813Z,10.03
2018-12-26T14:09:44.466Z,9.43
2018-12-26T14:12:33.987Z,9.40
2018-12-26T14:15:16.222Z,10.00
2018-12-26T14:18:05.737Z,9.93
2018-12-26T14:20:47.566Z,10.63
2018-12-26T14:23:37.140Z,10.00
2018-12-26T14:26:19.648Z,10.47
2018-12-26T14:32:17.672Z,9.70
2018-12-26T14:35:07.254Z,11.03
2018-12-26T14:37:49.820Z,10.03
2018-12-26T14:40:58.228Z,10.83
2018-12-26T14:43:41.104Z,10.30
2018-12-26T14:49:45.971Z,9.97
2018-12-26T14:52:28.080Z,9.80
2018-12-26T14:55:17.612Z,10.43
2018-12-26T14:58:00.000Z,10.47
2018-12-26T15:01:08.445Z,10.43
2018-12-26T15:03:50.456Z,9.70
2018-12-26T15:06:58.920Z,10.00
2018-12-26T15:09:44.216Z,9.87
2018-12-26T15:15:22.934Z,11.37
2018-12-26T15:18:12.456Z,11.03
2018-12-26T15:20:54.949Z,11.97
2018-12-26T15:24:03.533Z,11.63
2018-12-26T15:26:46.146Z,10.73
2018-12-26T15:29:35.680Z,10.93
2018-12-26T15:32:17.868Z,11.20
2018-12-26T15:35:07.499Z,11.03
2018-12-26T15:37:49.301Z,12.13
2018-12-26T15:43:27.873Z,11.40
2018-12-26T15:52:29.947Z,12.33
2018-12-26T15:55:20.336Z,11.43
2018-12-26T15:58:06.872Z,12.47
2018-12-26T16:01:29.887Z,12.47
2018-12-26T16:04:19.418Z,13.53
2018-12-26T16:07:01.290Z,13.77
2018-12-26T16:12:57.948Z,13.13
2018-12-26T16:19:10.834Z,13.10
2018-12-26T16:22:11.645Z,13.37
2018-12-26T16:25:12.357Z,12.70
2018-12-26T16:30:52.382Z,12.70
2018-12-26T16:33:53.788Z,15.07
2018-12-26T16:47:29.211Z,14.73
2018-12-26T16:56:56.339Z,14.60
2018-12-26T16:59:45.974Z,12.47
2018-12-26T17:02:28.339Z,12.77
2018-12-26T17:05:36.759Z,13.10
2018-12-26T17:08:18.497Z,13.67
2018-12-26T17:11:48.649Z,12.87
2018-12-26T17:14:30.332Z,13.13
2018-12-26T17:17:19.936Z,12.57
2018-12-26T17:20:02.194Z,12.87
2018-12-26T17:25:39.632Z,15.27
2018-12-26T17:28:21.588Z,13.60
2018-12-26T17:31:11.162Z,13.30
2018-12-26T17:34:00.717Z,13.33
2018-12-26T17:36:42.900Z,14.30
2018-12-26T17:42:21.332Z,14.10
2018-12-26T17:54:29.329Z,12.53
2018-12-26T17:57:39.688Z,13.13
2018-12-26T18:00:24.970Z,13.33
2018-12-26T18:06:21.327Z,13.43
2018-12-26T18:09:10.864Z,14.30
2018-12-26T18:11:53.244Z,13.30
2018-12-26T18:15:06.321Z,13.17
2018-12-26T18:17:48.345Z,13.87
2018-12-26T18:21:20.281Z,14.07
2018-12-26T18:24:02.812Z,14.70
2018-12-26T18:27:11.263Z,13.20
2018-12-26T18:29:53.742Z,13.80
2018-12-26T18:32:43.785Z,13.50
2018-12-26T18:35:34.913Z,15.23
2018-12-26T18:41:20.167Z,14.47
2018-12-26T18:44:06.675Z,16.23
2018-12-26T18:46:56.560Z,14.87
2018-12-26T18:49:41.822Z,14.43
2018-12-26T18:52:50.248Z,15.03
2018-12-26T18:55:35.842Z,14.70
2018-12-26T18:59:04.821Z,14.67
2018-12-26T19:01:52.655Z,14.77
2018-12-26T19:04:41.381Z,15.73
2018-12-26T19:07:31.018Z,17.53
2018-12-26T19:10:16.490Z,18.63
2018-12-26T19:13:08.130Z,17.73
2018-12-26T19:15:50.381Z,17.87
2018-12-26T19:18:40.109Z,17.17
2018-12-26T19:21:25.298Z,17.23
2018-12-26T19:24:14.925Z,16.90
2018-12-26T19:26:57.506Z,17.67
2018-12-26T19:29:47.137Z,20.90
2018-12-26T19:32:29.401Z,20.53
2018-12-26T19:38:54.902Z,19.97
2018-12-26T19:41:44.697Z,19.30
2018-12-26T19:44:31.074Z,20.60
2018-12-26T19:47:20.800Z,21.20
2018-12-26T19:50:06.749Z,19.50
2018-12-26T19:52:49.444Z,20.57
2018-12-26T19:55:39.040Z,19.27
2018-12-26T19:58:21.294Z,19.20
2018-12-26T20:01:28.214Z,20.27
2018-12-26T20:04:21.011Z,19.00
2018-12-26T20:07:04.822Z,18.60
2018-12-26T20:09:54.392Z,20.07
2018-12-26T20:12:42.268Z,20.47
2018-12-26T20:18:50.300Z,18.67
2018-12-26T20:24:47.841Z,18.17
2018-12-26T20:31:07.806Z,17.30
2018-12-26T20:33:49.561Z,17.27
2018-12-26T20:37:21.736Z,17.63
2018-12-26T20:40:04.148Z,17.30
2018-12-26T20:45:43.058Z,17.80
2018-12-26T20:48:33.045Z,17.80
2018-12-26T20:51:17.927Z,17.60
2018-12-26T20:54:07.503Z,18.07
2018-12-26T20:57:15.981Z,18.23
2018-12-26T20:59:58.723Z,18.43
2018-12-26T21:02:48.309Z,18.47
2018-12-26T21:05:30.226Z,18.63
2018-12-26T21:08:19.764Z,19.30
2018-12-26T21:11:02.002Z,19.27
2018-12-26T21:13:51.568Z,19.90
2018-12-26T21:16:41.228Z,18.50
2018-12-26T21:19:24.156Z,20.13
2018-12-26T21:22:16.074Z,17.63
2018-12-26T21:24:58.059Z,17.67
2018-12-26T21:27:47.692Z,18.50
2018-12-26T21:30:29.764Z,17.17
2018-12-26T21:33:20.263Z,18.20
2018-12-26T21:36:02.856Z,19.50
2018-12-26T21:39:11.476Z,19.50
2018-12-26T21:41:54.814Z,18.83
2018-12-26T21:47:51.115Z,19.10
2018-12-26T21:53:30.279Z,19.80
2018-12-26T21:56:19.967Z,20.27
2018-12-26T21:59:01.713Z,19.87
2018-12-26T22:02:10.150Z,20.23
2018-12-26T22:04:52.051Z,20.13
2018-12-26T22:07:41.776Z,20.03
2018-12-26T22:10:23.595Z,21.00
2018-12-26T22:13:13.152Z,21.10
2018-12-26T22:15:55.459Z,21.07
2018-12-26T22:18:45.215Z,22.93
2018-12-26T22:21:27.009Z,19.67
2018-12-26T22:24:16.778Z,22.03
2018-12-26T22:26:59.107Z,20.07
2018-12-26T22:29:48.791Z,20.30
2018-12-26T22:32:31.233Z,20.57
2018-12-26T22:35:20.886Z,19.90
2018-12-26T22:38:03.004Z,18.70
2018-12-26T22:41:11.434Z,19.50
2018-12-26T22:43:53.192Z,18.50
2018-12-26T22:49:43.914Z,18.07
2018-12-26T22:52:52.347Z,19.57
2018-12-26T22:55:34.749Z,17.17
2018-12-26T22:58:24.326Z,18.80
2018-12-26T23:01:07.059Z,16.07
2018-12-26T23:03:56.807Z,16.80
2018-12-26T23:06:46.337Z,17.43
2018-12-26T23:09:28.423Z,17.77
2018-12-26T23:12:36.890Z,16.80
2018-12-26T23:15:19.188Z,17.50
2018-12-26T23:18:01.035Z,16.53
2018-12-26T23:23:57.473Z,16.80
2018-12-26T23:26:57.679Z,17.70
2018-12-26T23:29:47.269Z,16.63
2018-12-26T23:32:29.345Z,17.43
2018-12-26T23:35:18.872Z,15.93
2018-12-26T23:38:00.574Z,17.87
2018-12-26T23:43:58.633Z,16.63
2018-12-26T23:46:48.143Z,16.60
2018-12-26T23:49:30.516Z,16.70
2018-12-26T23:55:27.024Z,16.07
2018-12-26T23:58:27.938Z,15.60
